Riviera Beach, FL

6:34 PM EST on March 05, 2015 (GMT -0500)
Witham | Change Station
CLOSE
Current Station
Airport
Location: Stuart,
Elevation: 20 ft
Nearby Weather Stations

Elev 20 ft 27.18 °N, 80.22 °W | Updated 47 minutes ago

Partly Cloudy
Partly Cloudy
77 °F
Feels Like 77 °F
N
9
Wind Variable Wind from SSE

Today
High -- | Low -- °F
--% Chance of Precip.
Yesterday
High -- | Low -- °F
Precip. -- in
6:40 AM 6:23 PM
Full, 100% visible
Pressure 30.09 in
Visibility 7.0 miles
Clouds Few 3500 ft
Dew Point 68 °F
Humidity 74%
Rainfall 0.00 in
Snow Depth Not available.
UV 0 out of 12
Pollen 10.90 out of 12
Air Quality Not available.
Flu Activity Not available.
METAR KSUA 052247Z 16008KT 7SM FEW035 25/20 A3009

More Conditions Fewer Conditions

Pressure 30.09 in
Visibility 7.0 miles
Clouds Few 3500 ft
Dew Point 68 °F
Humidity 74%
Rainfall 0.00 in
Snow Depth Not available.
UV 0 out of 12
Pollen 10.90 out of 12
Air Quality Not available.
Flu Activity Not available.
METAR KSUA 052247Z 16008KT 7SM FEW035 25/20 A3009

More Conditions Fewer Conditions

10-Day Weather Forecast

Almanac

Astronomy

Mar. 05, 2015 Rise Set
Actual Time
Civil Twilight
Nautical Twilight
Astronomical Twilight
Moon
Length of Visible Light
Length of Day
Tomorrow will be .
, % of the Moon is Illuminated

Today's Extremes

State Highs State Lows

Community

WunderPhotos

Upload Photos

1,803,057 photos uploaded!

WunderBlogs® & News

Nearby

Air Quality

  Air Quality AQ Index Pollutant
Not available.

Snow Depth

Station Depth Elevation

Earthquake Activity

City Distance Mag. Time & Date
Minimum magnitude displayed is 2.5.

Coastal Water Temperatures

Place Temperature

Nearby Weather Stations